^^
Station Historical Data
Daily Summary for July 5, 2017 Units:  Both    English   Metric
« Previous Day
Next Day »
Daily Weekly Monthly Yearly Custom
  High: Low: Average:
Temperature: 71.1 °F /  21.7 °C 42.3 °F /  5.7 °C 55.3 °F /  12.9 °C
Dew Point: 35.1 °F /  1.7 °C 19.2 °F /  -7.1 °C 27.9 °F /  -2.3 °C
Humidity: 64% 14% 38%
Wind Speed: 11.0mph /  17.7km/h - 1mph /  1.6km/h
Wind Gust: 15.0mph /  24.1km/h - -
Wind- - ENE
Pressure: 30.51 in /  1033.1 hPa 30.37 in /  1028.3 hPa -
Precipitation: 0.00 in /  0 mm    
Historical Graphs
 
 
Tabular Data for July 5, 2017
Time Temperature Dew Point Pressure Wind Wind Speed Wind Gust Humidity Rainfall Rate (Hourly) solar Conditions
00:06 49.8 °F /  9.9 °C 29.3 °F /  -1.5 °C 30.43in /  1030.4hPa Calm     45% 0.00in /  0mm 0.0 W/m2
00:12 49.6 °F /  9.8 °C 29.1 °F /  -1.6 °C 30.43in /  1030.4hPa Calm     45% 0.00in /  0mm 0.0 W/m2
00:18 49.5 °F /  9.7 °C 28.9 °F /  -1.7 °C 30.43in /  1030.4hPa Calm     45% 0.00in /  0mm 0.0 W/m2
00:24 49.5 °F /  9.7 °C 28.9 °F /  -1.7 °C 30.43in /  1030.4hPa Calm   1.0mph /  1.6km/h 45% 0.00in /  0mm 0.0 W/m2
00:30 49.3 °F /  9.6 °C 29.3 °F /  -1.5 °C 30.43in /  1030.4hPa Calm     46% 0.00in /  0mm 0.0 W/m2
00:36 48.9 °F /  9.4 °C 29.1 °F /  -1.6 °C 30.43in /  1030.4hPa Calm     46% 0.00in /  0mm 0.0 W/m2
00:42 48.7 °F /  9.3 °C 29.5 °F /  -1.4 °C 30.44in /  1030.7hPa Calm     47% 0.00in /  0mm 0.0 W/m2
00:48 48.6 °F /  9.2 °C 29.3 °F /  -1.5 °C 30.43in /  1030.4hPa Calm     47% 0.00in /  0mm 0.0 W/m2
00:54 48.4 °F /  9.1 °C 29.1 °F /  -1.6 °C 30.43in /  1030.4hPa Calm     47% 0.00in /  0mm 0.0 W/m2
01:00 48.2 °F /  9 °C 29.5 °F /  -1.4 °C 30.43in /  1030.4hPa Calm     48% 0.00in /  0mm 0.0 W/m2
01:06 48.0 °F /  8.9 °C 29.3 °F /  -1.5 °C 30.43in /  1030.4hPa Calm     48% 0.00in /  0mm 0.0 W/m2
01:12 47.8 °F /  8.8 °C 29.7 °F /  -1.3 °C 30.43in /  1030.4hPa Calm     49% 0.00in /  0mm 0.0 W/m2
01:18 47.7 °F /  8.7 °C 29.5 °F /  -1.4 °C 30.43in /  1030.4hPa Calm     49% 0.00in /  0mm 0.0 W/m2
01:25 47.7 °F /  8.7 °C 29.5 °F /  -1.4 °C 30.43in /  1030.4hPa Calm     49% 0.00in /  0mm 0.0 W/m2
01:31 47.7 °F /  8.7 °C 30.0 °F /  -1.1 °C 30.43in /  1030.4hPa Calm     50% 0.00in /  0mm 0.0 W/m2
01:37 47.5 °F /  8.6 °C 29.8 °F /  -1.2 °C 30.43in /  1030.4hPa Calm     50% 0.00in /  0mm 0.0 W/m2
01:43 47.5 °F /  8.6 °C 29.8 °F /  -1.2 °C 30.43in /  1030.4hPa Calm     50% 0.00in /  0mm 0.0 W/m2
01:49 47.3 °F /  8.5 °C 29.7 °F /  -1.3 °C 30.42in /  1030hPa Calm     50% 0.00in /  0mm 0.0 W/m2
01:55 47.1 °F /  8.4 °C 29.5 °F /  -1.4 °C 30.42in /  1030hPa Calm     50% 0.00in /  0mm 0.0 W/m2
02:01 47.1 °F /  8.4 °C 29.8 °F /  -1.2 °C 30.42in /  1030hPa Calm     51% 0.00in /  0mm 0.0 W/m2
02:08 46.9 °F /  8.3 °C 30.2 °F /  -1 °C 30.42in /  1030hPa Calm     52% 0.00in /  0mm 0.0 W/m2
02:14 46.6 °F /  8.1 °C 29.5 °F /  -1.4 °C 30.42in /  1030hPa Calm     51% 0.00in /  0mm 0.0 W/m2
02:20 46.2 °F /  7.9 °C 30.0 °F /  -1.1 °C 30.42in /  1030hPa Calm     53% 0.00in /  0mm 0.0 W/m2
02:26 45.9 °F /  7.7 °C 30.2 °F /  -1 °C 30.42in /  1030hPa Calm     54% 0.00in /  0mm 0.0 W/m2
02:32 45.7 °F /  7.6 °C 30.0 °F /  -1.1 °C 30.42in /  1030hPa Calm     54% 0.00in /  0mm 0.0 W/m2
02:38 45.3 °F /  7.4 °C 29.1 °F /  -1.6 °C 30.42in /  1030hPa Calm     53% 0.00in /  0mm 0.0 W/m2
02:44 45.0 °F /  7.2 °C 29.3 °F /  -1.5 °C 30.42in /  1030hPa Calm     54% 0.00in /  0mm 0.0 W/m2
02:51 44.4 °F /  6.9 °C 29.3 °F /  -1.5 °C 30.42in /  1030hPa Calm     55% 0.00in /  0mm 0.0 W/m2
02:57 44.2 °F /  6.8 °C 29.5 °F /  -1.4 °C 30.42in /  1030hPa Calm     56% 0.00in /  0mm 0.0 W/m2
03:03 44.1 °F /  6.7 °C 29.8 °F /  -1.2 °C 30.42in /  1030hPa Calm     57% 0.00in /  0mm 0.0 W/m2
03:09 43.9 °F /  6.6 °C 29.7 °F /  -1.3 °C 30.42in /  1030hPa Calm     57% 0.00in /  0mm 0.0 W/m2
03:15 43.7 °F /  6.5 °C 29.5 °F /  -1.4 °C 30.42in /  1030hPa Calm     57% 0.00in /  0mm 0.0 W/m2
03:21 43.3 °F /  6.3 °C 29.5 °F /  -1.4 °C 30.42in /  1030hPa Calm     58% 0.00in /  0mm 0.0 W/m2
03:28 43.2 °F /  6.2 °C 29.3 °F /  -1.5 °C 30.42in /  1030hPa Calm     58% 0.00in /  0mm 0.0 W/m2
03:34 43.0 °F /  6.1 °C 29.7 °F /  -1.3 °C 30.42in /  1030hPa Calm     59% 0.00in /  0mm 0.0 W/m2
03:40 42.6 °F /  5.9 °C 29.7 °F /  -1.3 °C 30.42in /  1030hPa Calm     60% 0.00in /  0mm 0.0 W/m2
03:46 42.4 °F /  5.8 °C 29.5 °F /  -1.4 °C 30.41in /  1029.7hPa Calm     60% 0.00in /  0mm 0.0 W/m2
03:52 42.3 °F /  5.7 °C 29.8 °F /  -1.2 °C 30.41in /  1029.7hPa Calm     61% 0.00in /  0mm 0.0 W/m2
03:58 42.3 °F /  5.7 °C 29.8 °F /  -1.2 °C 30.41in /  1029.7hPa Calm     61% 0.00in /  0mm 0.0 W/m2
04:04 42.3 °F /  5.7 °C 29.8 °F /  -1.2 °C 30.41in /  1029.7hPa Calm     61% 0.00in /  0mm 0.0 W/m2
04:10 42.4 °F /  5.8 °C 30.0 °F /  -1.1 °C 30.41in /  1029.7hPa Calm     61% 0.00in /  0mm 0.0 W/m2
04:17 42.8 °F /  6 °C 30.2 °F /  -1 °C 30.41in /  1029.7hPa Calm     61% 0.00in /  0mm 0.0 W/m2
04:23 43.0 °F /  6.1 °C 30.0 °F /  -1.1 °C 30.42in /  1030hPa Calm     60% 0.00in /  0mm 0.0 W/m2
04:29 43.2 °F /  6.2 °C 30.2 °F /  -1 °C 30.42in /  1030hPa Calm     60% 0.00in /  0mm 0.0 W/m2
04:35 43.2 °F /  6.2 °C 30.2 °F /  -1 °C 30.42in /  1030hPa Calm     60% 0.00in /  0mm 0.0 W/m2
04:41 43.2 °F /  6.2 °C 29.8 °F /  -1.2 °C 30.42in /  1030hPa Calm     59% 0.00in /  0mm 0.0 W/m2
04:47 43.2 °F /  6.2 °C 29.8 °F /  -1.2 °C 30.42in /  1030hPa Calm     59% 0.00in /  0mm 0.0 W/m2
04:54 43.2 °F /  6.2 °C 29.8 °F /  -1.2 °C 30.43in /  1030.4hPa Calm   1.0mph /  1.6km/h 59% 0.00in /  0mm 0.0 W/m2
05:00 43.3 °F /  6.3 °C 30.0 °F /  -1.1 °C 30.43in /  1030.4hPa Calm     59% 0.00in /  0mm 0.0 W/m2
05:06 43.5 °F /  6.4 °C 30.2 °F /  -1 °C 30.43in /  1030.4hPa Calm     59% 0.00in /  0mm 0.0 W/m2
05:12 43.5 °F /  6.4 °C 29.7 °F /  -1.3 °C 30.44in /  1030.7hPa Calm     58% 0.00in /  0mm 0.0 W/m2
05:18 43.9 °F /  6.6 °C 30.0 °F /  -1.1 °C 30.44in /  1030.7hPa Calm     58% 0.00in /  0mm 0.0 W/m2
05:24 44.1 °F /  6.7 °C 30.2 °F /  -1 °C 30.44in /  1030.7hPa Calm     58% 0.00in /  0mm 0.0 W/m2
05:30 44.2 °F /  6.8 °C 30.0 °F /  -1.1 °C 30.44in /  1030.7hPa Calm     57% 0.00in /  0mm 0.0 W/m2
05:37 44.4 °F /  6.9 °C 30.2 °F /  -1 °C 30.44in /  1030.7hPa Calm     57% 0.00in /  0mm 0.0 W/m2
05:52 44.8 °F /  7.1 °C 30.6 °F /  -0.8 °C 30.44in /  1030.7hPa Calm     57% 0.00in /  0mm 0.0 W/m2
05:58 44.6 °F /  7 °C 30.4 °F /  -0.9 °C 30.44in /  1030.7hPa Calm     57% 0.00in /  0mm 0.0 W/m2
06:03 44.4 °F /  6.9 °C 30.2 °F /  -1 °C 30.44in /  1030.7hPa Calm     57% 0.00in /  0mm 0.0 W/m2
06:09 44.2 °F /  6.8 °C 30.4 °F /  -0.9 °C 30.44in /  1030.7hPa Calm     58% 0.00in /  0mm 0.0 W/m2
06:15 44.1 °F /  6.7 °C 30.2 °F /  -1 °C 30.44in /  1030.7hPa Calm     58% 0.00in /  0mm 0.0 W/m2
06:22 43.9 °F /  6.6 °C 30.6 °F /  -0.8 °C 30.44in /  1030.7hPa Calm     59% 0.00in /  0mm 0.0 W/m2
06:28 43.5 °F /  6.4 °C 30.6 °F /  -0.8 °C 30.44in /  1030.7hPa Calm     60% 0.00in /  0mm 0.0 W/m2
06:34 43.2 °F /  6.2 °C 30.2 °F /  -1 °C 30.44in /  1030.7hPa Calm     60% 0.00in /  0mm 0.0 W/m2
06:40 43.0 °F /  6.1 °C 30.4 °F /  -0.9 °C 30.45in /  1031hPa Calm     61% 0.00in /  0mm 7.0 W/m2
06:46 42.6 °F /  5.9 °C 30.2 °F /  -1 °C 30.45in /  1031hPa Calm     61% 0.00in /  0mm 9.0 W/m2
06:52 42.6 °F /  5.9 °C 30.2 °F /  -1 °C 30.45in /  1031hPa Calm     61% 0.00in /  0mm 12.0 W/m2
06:59 42.4 °F /  5.8 °C 30.0 °F /  -1.1 °C 30.45in /  1031hPa Calm     61% 0.00in /  0mm 14.0 W/m2
07:05 42.4 °F /  5.8 °C 30.0 °F /  -1.1 °C 30.46in /  1031.4hPa Calm     61% 0.00in /  0mm 16.0 W/m2
07:11 42.3 °F /  5.7 °C 30.6 °F /  -0.8 °C 30.46in /  1031.4hPa Calm     63% 0.00in /  0mm 18.0 W/m2
07:17 42.4 °F /  5.8 °C 31.1 °F /  -0.5 °C 30.46in /  1031.4hPa Calm     64% 0.00in /  0mm 21.0 W/m2
07:23 42.6 °F /  5.9 °C 30.9 °F /  -0.6 °C 30.46in /  1031.4hPa Calm     63% 0.00in /  0mm 23.0 W/m2
07:29 42.8 °F /  6 °C 31.1 °F /  -0.5 °C 30.47in /  1031.7hPa Calm   1.0mph /  1.6km/h 63% 0.00in /  0mm 25.0 W/m2
07:35 43.2 °F /  6.2 °C 31.1 °F /  -0.5 °C 30.47in /  1031.7hPa Calm     62% 0.00in /  0mm 26.0 W/m2
07:42 43.5 °F /  6.4 °C 31.3 °F /  -0.4 °C 30.48in /  1032.1hPa Calm     62% 0.00in /  0mm 28.0 W/m2
07:48 44.1 °F /  6.7 °C 31.8 °F /  -0.1 °C 30.48in /  1032.1hPa Calm     62% 0.00in /  0mm 30.0 W/m2
07:54 44.8 °F /  7.1 °C 32.5 °F /  0.3 °C 30.48in /  1032.1hPa Calm     62% 0.00in /  0mm 32.0 W/m2
08:00 46.2 °F /  7.9 °C 33.4 °F /  0.8 °C 30.48in /  1032.1hPa Calm     61% 0.00in /  0mm 70.0 W/m2
08:06 48.0 °F /  8.9 °C 34.3 °F /  1.3 °C 30.49in /  1032.4hPa Calm     59% 0.00in /  0mm 265.0 W/m2
08:12 50.5 °F /  10.3 °C 34.5 °F /  1.4 °C 30.49in /  1032.4hPa Calm     54% 0.00in /  0mm 288.0 W/m2
08:19 52.7 °F /  11.5 °C 35.1 °F /  1.7 °C 30.49in /  1032.4hPa Calm     51% 0.00in /  0mm 311.0 W/m2
08:25 54.9 °F /  12.7 °C 34.5 °F /  1.4 °C 30.49in /  1032.4hPa Calm   1.0mph /  1.6km/h 46% 0.00in /  0mm 330.0 W/m2
08:31 56.5 °F /  13.6 °C 34.3 °F /  1.3 °C 30.49in /  1032.4hPa ESE 0.9mph /  1.4km/h 4.0mph /  6.4km/h 43% 0.00in /  0mm 350.0 W/m2
08:37 57.9 °F /  14.4 °C 33.8 °F /  1 °C 30.48in /  1032.1hPa Calm   2.0mph /  3.2km/h 40% 0.00in /  0mm 367.0 W/m2
08:43 59.2 °F /  15.1 °C 34.2 °F /  1.2 °C 30.48in /  1032.1hPa Calm   4.0mph /  6.4km/h 39% 0.00in /  0mm 387.0 W/m2
08:49 60.4 °F /  15.8 °C 34.0 °F /  1.1 °C 30.48in /  1032.1hPa Calm   2.0mph /  3.2km/h 37% 0.00in /  0mm 404.0 W/m2
08:55 61.2 °F /  16.2 °C 34.0 °F /  1.1 °C 30.48in /  1032.1hPa Calm   2.0mph /  3.2km/h 36% 0.00in /  0mm 424.0 W/m2
09:02 61.9 °F /  16.6 °C 34.0 °F /  1.1 °C 30.48in /  1032.1hPa Calm   1.0mph /  1.6km/h 35% 0.00in /  0mm 439.0 W/m2
09:08 62.4 °F /  16.9 °C 32.9 °F /  0.5 °C 30.48in /  1032.1hPa Calm   4.0mph /  6.4km/h 33% 0.00in /  0mm 457.0 W/m2
09:14 63.3 °F /  17.4 °C 32.2 °F /  0.1 °C 30.48in /  1032.1hPa NNE 2.9mph /  4.7km/h 8.0mph /  12.9km/h 31% 0.00in /  0mm 475.0 W/m2
09:20 63.9 °F /  17.7 °C 32.7 °F /  0.4 °C 30.48in /  1032.1hPa NNE 4.9mph /  7.9km/h 6.0mph /  9.7km/h 31% 0.00in /  0mm 490.0 W/m2
09:26 64.0 °F /  17.8 °C 32.0 °F /  0 °C 30.48in /  1032.1hPa North 2.0mph /  3.2km/h 8.0mph /  12.9km/h 30% 0.00in /  0mm 506.0 W/m2
09:32 64.0 °F /  17.8 °C 32.0 °F /  0 °C 30.47in /  1031.7hPa East 0.9mph /  1.4km/h 7.0mph /  11.3km/h 30% 0.00in /  0mm 520.0 W/m2
09:38 64.4 °F /  18 °C 32.4 °F /  0.2 °C 30.47in /  1031.7hPa South 4.0mph /  6.4km/h 7.0mph /  11.3km/h 30% 0.00in /  0mm 534.0 W/m2
09:44 64.8 °F /  18.2 °C 32.5 °F /  0.3 °C 30.47in /  1031.7hPa SE 0.9mph /  1.4km/h 8.0mph /  12.9km/h 30% 0.00in /  0mm 548.0 W/m2
09:51 64.9 °F /  18.3 °C 32.0 °F /  0 °C 30.47in /  1031.7hPa NE 0.9mph /  1.4km/h 5.0mph /  8km/h 29% 0.00in /  0mm 561.0 W/m2
09:57 65.1 °F /  18.4 °C 32.0 °F /  0 °C 30.47in /  1031.7hPa ENE 4.0mph /  6.4km/h 11.0mph /  17.7km/h 29% 0.00in /  0mm 573.0 W/m2
10:03 65.5 °F /  18.6 °C 31.5 °F /  -0.3 °C 30.47in /  1031.7hPa ENE 4.0mph /  6.4km/h 9.0mph /  14.5km/h 28% 0.00in /  0mm 587.0 W/m2
10:09 65.7 °F /  18.7 °C 31.6 °F /  -0.2 °C 30.47in /  1031.7hPa NE 4.0mph /  6.4km/h 7.0mph /  11.3km/h 28% 0.00in /  0mm 596.0 W/m2
10:15 65.8 °F /  18.8 °C 32.7 °F /  0.4 °C 30.47in /  1031.7hPa Calm   6.0mph /  9.7km/h 29% 0.00in /  0mm 606.0 W/m2
10:21 66.0 °F /  18.9 °C 32.0 °F /  0 °C 30.46in /  1031.4hPa ENE 0.9mph /  1.4km/h 7.0mph /  11.3km/h 28% 0.00in /  0mm 615.0 W/m2
10:28 66.6 °F /  19.2 °C 31.5 °F /  -0.3 °C 30.46in /  1031.4hPa Calm   6.0mph /  9.7km/h 27% 0.00in /  0mm 624.0 W/m2
10:34 67.3 °F /  19.6 °C 32.2 °F /  0.1 °C 30.46in /  1031.4hPa NNW 2.9mph /  4.7km/h 7.0mph /  11.3km/h 27% 0.00in /  0mm 633.0 W/m2
10:40 67.5 °F /  19.7 °C 32.4 °F /  0.2 °C 30.46in /  1031.4hPa NE 2.9mph /  4.7km/h 6.0mph /  9.7km/h 27% 0.00in /  0mm 642.0 W/m2
10:46 67.6 °F /  19.8 °C 31.5 °F /  -0.3 °C 30.46in /  1031.4hPa Calm   9.0mph /  14.5km/h 26% 0.00in /  0mm 649.0 W/m2
10:52 67.6 °F /  19.8 °C 31.5 °F /  -0.3 °C 30.46in /  1031.4hPa Calm   4.0mph /  6.4km/h 26% 0.00in /  0mm 656.0 W/m2
10:58 68.2 °F /  20.1 °C 32.0 °F /  0 °C 30.46in /  1031.4hPa NNE 0.9mph /  1.4km/h 2.0mph /  3.2km/h 26% 0.00in /  0mm 663.0 W/m2
11:04 68.2 °F /  20.1 °C 32.0 °F /  0 °C 30.45in /  1031hPa ESE 4.9mph /  7.9km/h 7.0mph /  11.3km/h 26% 0.00in /  0mm 668.0 W/m2
11:10 68.4 °F /  20.2 °C 31.1 °F /  -0.5 °C 30.46in /  1031.4hPa East 0.9mph /  1.4km/h 9.0mph /  14.5km/h 25% 0.00in /  0mm 673.0 W/m2
11:16 68.5 °F /  20.3 °C 31.3 °F /  -0.4 °C 30.45in /  1031hPa SE 4.0mph /  6.4km/h 10.0mph /  16.1km/h 25% 0.00in /  0mm 677.0 W/m2
11:22 68.5 °F /  20.3 °C 31.3 °F /  -0.4 °C 30.45in /  1031hPa ENE 0.9mph /  1.4km/h 8.0mph /  12.9km/h 25% 0.00in /  0mm 680.0 W/m2
11:29 68.5 °F /  20.3 °C 30.4 °F /  -0.9 °C 30.45in /  1031hPa NNE 6.0mph /  9.7km/h 10.0mph /  16.1km/h 24% 0.00in /  0mm 687.0 W/m2
11:35 68.7 °F /  20.4 °C 30.4 °F /  -0.9 °C 30.44in /  1030.7hPa NNE 2.9mph /  4.7km/h 9.0mph /  14.5km/h 24% 0.00in /  0mm 689.0 W/m2
11:41 69.1 °F /  20.6 °C 30.7 °F /  -0.7 °C 30.44in /  1030.7hPa SE 4.0mph /  6.4km/h 9.0mph /  14.5km/h 24% 0.00in /  0mm 691.0 W/m2
11:47 69.1 °F /  20.6 °C 29.7 °F /  -1.3 °C 30.44in /  1030.7hPa ENE 6.9mph /  11.1km/h 9.0mph /  14.5km/h 23% 0.00in /  0mm 691.0 W/m2
11:53 69.1 °F /  20.6 °C 29.7 °F /  -1.3 °C 30.44in /  1030.7hPa NE 6.0mph /  9.7km/h 9.0mph /  14.5km/h 23% 0.00in /  0mm 687.0 W/m2
11:59 69.3 °F /  20.7 °C 29.8 °F /  -1.2 °C 30.43in /  1030.4hPa Calm   4.0mph /  6.4km/h 23% 0.00in /  0mm 691.0 W/m2
12:06 69.4 °F /  20.8 °C 28.9 °F /  -1.7 °C 30.42in /  1030hPa NE 6.9mph /  11.1km/h 10.0mph /  16.1km/h 22% 0.00in /  0mm 689.0 W/m2
12:12 69.6 °F /  20.9 °C 29.1 °F /  -1.6 °C 30.42in /  1030hPa ENE 11.0mph /  17.7km/h 12.0mph /  19.3km/h 22% 0.00in /  0mm 682.0 W/m2
12:18 69.6 °F /  20.9 °C 29.1 °F /  -1.6 °C 30.41in /  1029.7hPa East 2.9mph /  4.7km/h 9.0mph /  14.5km/h 22% 0.00in /  0mm 680.0 W/m2
12:24 69.6 °F /  20.9 °C 27.9 °F /  -2.3 °C 30.41in /  1029.7hPa NNE 6.9mph /  11.1km/h 7.0mph /  11.3km/h 21% 0.00in /  0mm 680.0 W/m2
12:30 70.0 °F /  21.1 °C 28.2 °F /  -2.1 °C 30.41in /  1029.7hPa NE 2.9mph /  4.7km/h 8.0mph /  12.9km/h 21% 0.00in /  0mm 675.0 W/m2
12:42 70.0 °F /  21.1 °C 28.2 °F /  -2.1 °C 30.40in /  1029.3hPa East 6.9mph /  11.1km/h 10.0mph /  16.1km/h 21% 0.00in /  0mm 663.0 W/m2
12:48 70.0 °F /  21.1 °C 28.2 °F /  -2.1 °C 30.40in /  1029.3hPa Calm   6.0mph /  9.7km/h 21% 0.00in /  0mm 661.0 W/m2
12:54 70.5 °F /  21.4 °C 27.5 °F /  -2.5 °C 30.39in /  1029hPa North 2.9mph /  4.7km/h 8.0mph /  12.9km/h 20% 0.00in /  0mm 652.0 W/m2
13:01 70.5 °F /  21.4 °C 26.2 °F /  -3.2 °C 30.39in /  1029hPa ESE 6.0mph /  9.7km/h 9.0mph /  14.5km/h 19% 0.00in /  0mm 649.0 W/m2
13:07 70.3 °F /  21.3 °C 26.1 °F /  -3.3 °C 30.39in /  1029hPa NE 2.9mph /  4.7km/h 11.0mph /  17.7km/h 19% 0.00in /  0mm 635.0 W/m2
13:13 70.3 °F /  21.3 °C 26.1 °F /  -3.3 °C 30.39in /  1029hPa Calm   7.0mph /  11.3km/h 19% 0.00in /  0mm 633.0 W/m2
13:19 70.7 °F /  21.5 °C 26.4 °F /  -3.1 °C 30.39in /  1029hPa East 0.9mph /  1.4km/h 6.0mph /  9.7km/h 19% 0.00in /  0mm 624.0 W/m2
13:25 70.9 °F /  21.6 °C 25.3 °F /  -3.7 °C 30.39in /  1029hPa East 8.1mph /  13km/h 10.0mph /  16.1km/h 18% 0.00in /  0mm 613.0 W/m2
13:31 70.9 °F /  21.6 °C 25.3 °F /  -3.7 °C 30.38in /  1028.7hPa East 6.0mph /  9.7km/h 12.0mph /  19.3km/h 18% 0.00in /  0mm 605.0 W/m2
13:37 70.9 °F /  21.6 °C 27.9 °F /  -2.3 °C 30.39in /  1029hPa ESE 4.9mph /  7.9km/h 6.0mph /  9.7km/h 20% 0.00in /  0mm 594.0 W/m2
13:43 70.9 °F /  21.6 °C 26.6 °F /  -3 °C 30.38in /  1028.7hPa NNE 0.9mph /  1.4km/h 3.0mph /  4.8km/h 19% 0.00in /  0mm 582.0 W/m2
13:49 71.1 °F /  21.7 °C 25.3 °F /  -3.7 °C 30.38in /  1028.7hPa NNE 0.9mph /  1.4km/h 9.0mph /  14.5km/h 18% 0.00in /  0mm 570.0 W/m2
13:56 70.9 °F /  21.6 °C 23.9 °F /  -4.5 °C 30.38in /  1028.7hPa North 4.0mph /  6.4km/h 11.0mph /  17.7km/h 17% 0.00in /  0mm 557.0 W/m2
14:02 70.5 °F /  21.4 °C 23.5 °F /  -4.7 °C 30.38in /  1028.7hPa NNE 2.0mph /  3.2km/h 5.0mph /  8km/h 17% 0.00in /  0mm 543.0 W/m2
14:08 70.3 °F /  21.3 °C 24.8 °F /  -4 °C 30.38in /  1028.7hPa SE 4.0mph /  6.4km/h 8.0mph /  12.9km/h 18% 0.00in /  0mm 534.0 W/m2
14:14 70.5 °F /  21.4 °C 23.5 °F /  -4.7 °C 30.37in /  1028.3hPa Calm   9.0mph /  14.5km/h 17% 0.00in /  0mm 520.0 W/m2
14:20 70.7 °F /  21.5 °C 22.3 °F /  -5.4 °C 30.37in /  1028.3hPa NNE 4.0mph /  6.4km/h 5.0mph /  8km/h 16% 0.00in /  0mm 504.0 W/m2
14:26 70.9 °F /  21.6 °C 22.5 °F /  -5.3 °C 30.38in /  1028.7hPa Calm   15.0mph /  24.1km/h 16% 0.00in /  0mm 490.0 W/m2
14:32 70.7 °F /  21.5 °C 22.3 °F /  -5.4 °C 30.37in /  1028.3hPa North 4.9mph /  7.9km/h 12.0mph /  19.3km/h 16% 0.00in /  0mm 478.0 W/m2
14:38 70.5 °F /  21.4 °C 23.5 °F /  -4.7 °C 30.37in /  1028.3hPa NNE 8.9mph /  14.3km/h 9.0mph /  14.5km/h 17% 0.00in /  0mm 461.0 W/m2
14:45 70.9 °F /  21.6 °C 22.5 °F /  -5.3 °C 30.37in /  1028.3hPa ENE 6.0mph /  9.7km/h 6.0mph /  9.7km/h 16% 0.00in /  0mm 441.0 W/m2
14:53 71.1 °F /  21.7 °C 21.0 °F /  -6.1 °C 30.38in /  1028.7hPa Calm   9.0mph /  14.5km/h 15% 0.00in /  0mm 424.0 W/m2
14:59 71.1 °F /  21.7 °C 21.0 °F /  -6.1 °C 30.38in /  1028.7hPa East 2.9mph /  4.7km/h 7.0mph /  11.3km/h 15% 0.00in /  0mm 406.0 W/m2
15:05 70.7 °F /  21.5 °C 19.2 °F /  -7.1 °C 30.38in /  1028.7hPa ENE 4.9mph /  7.9km/h 10.0mph /  16.1km/h 14% 0.00in /  0mm 388.0 W/m2
15:11 70.3 °F /  21.3 °C 20.5 °F /  -6.4 °C 30.38in /  1028.7hPa SE 0.9mph /  1.4km/h 8.0mph /  12.9km/h 15% 0.00in /  0mm 369.0 W/m2
15:17 70.0 °F /  21.1 °C 20.1 °F /  -6.6 °C 30.38in /  1028.7hPa NNE 4.9mph /  7.9km/h 6.0mph /  9.7km/h 15% 0.00in /  0mm 350.0 W/m2
15:23 69.4 °F /  20.8 °C 21.2 °F /  -6 °C 30.38in /  1028.7hPa NNE 2.9mph /  4.7km/h 7.0mph /  11.3km/h 16% 0.00in /  0mm 330.0 W/m2
15:29 69.3 °F /  20.7 °C 21.2 °F /  -6 °C 30.38in /  1028.7hPa NE 2.0mph /  3.2km/h 7.0mph /  11.3km/h 16% 0.00in /  0mm 46.0 W/m2
15:35 69.1 °F /  20.6 °C 21.0 °F /  -6.1 °C 30.38in /  1028.7hPa NNE 2.0mph /  3.2km/h 7.0mph /  11.3km/h 16% 0.00in /  0mm 42.0 W/m2
15:42 68.7 °F /  20.4 °C 22.1 °F /  -5.5 °C 30.38in /  1028.7hPa ENE 2.9mph /  4.7km/h 6.0mph /  9.7km/h 17% 0.00in /  0mm 40.0 W/m2
15:48 68.4 °F /  20.2 °C 21.9 °F /  -5.6 °C 30.38in /  1028.7hPa NNE 2.0mph /  3.2km/h 8.0mph /  12.9km/h 17% 0.00in /  0mm 39.0 W/m2
15:54 68.2 °F /  20.1 °C 21.7 °F /  -5.7 °C 30.38in /  1028.7hPa NE 4.0mph /  6.4km/h 6.0mph /  9.7km/h 17% 0.00in /  0mm 37.0 W/m2
16:00 68.0 °F /  20 °C 21.6 °F /  -5.8 °C 30.38in /  1028.7hPa ENE 8.1mph /  13km/h 10.0mph /  16.1km/h 17% 0.00in /  0mm 35.0 W/m2
16:06 67.6 °F /  19.8 °C 22.6 °F /  -5.2 °C 30.39in /  1029hPa ESE 4.0mph /  6.4km/h 5.0mph /  8km/h 18% 0.00in /  0mm 30.0 W/m2
16:12 67.5 °F /  19.7 °C 22.5 °F /  -5.3 °C 30.39in /  1029hPa Calm   5.0mph /  8km/h 18% 0.00in /  0mm 26.0 W/m2
16:18 67.3 °F /  19.6 °C 23.5 °F /  -4.7 °C 30.40in /  1029.3hPa Calm   5.0mph /  8km/h 19% 0.00in /  0mm 25.0 W/m2
16:24 66.9 °F /  19.4 °C 23.4 °F /  -4.8 °C 30.40in /  1029.3hPa NE 2.9mph /  4.7km/h 4.0mph /  6.4km/h 19% 0.00in /  0mm 23.0 W/m2
16:31 66.6 °F /  19.2 °C 23.0 °F /  -5 °C 30.40in /  1029.3hPa ENE 2.9mph /  4.7km/h 10.0mph /  16.1km/h 19% 0.00in /  0mm 21.0 W/m2
16:37 66.4 °F /  19.1 °C 24.1 °F /  -4.4 °C 30.40in /  1029.3hPa East 2.0mph /  3.2km/h 8.0mph /  12.9km/h 20% 0.00in /  0mm 19.0 W/m2
16:43 66.0 °F /  18.9 °C 23.7 °F /  -4.6 °C 30.40in /  1029.3hPa ENE 4.9mph /  7.9km/h 8.0mph /  12.9km/h 20% 0.00in /  0mm 18.0 W/m2
16:49 65.8 °F /  18.8 °C 24.8 °F /  -4 °C 30.40in /  1029.3hPa NE 2.0mph /  3.2km/h 4.0mph /  6.4km/h 21% 0.00in /  0mm 16.0 W/m2
16:55 65.7 °F /  18.7 °C 24.6 °F /  -4.1 °C 30.40in /  1029.3hPa NE 2.0mph /  3.2km/h 6.0mph /  9.7km/h 21% 0.00in /  0mm 14.0 W/m2
17:01 65.1 °F /  18.4 °C 24.3 °F /  -4.3 °C 30.41in /  1029.7hPa Calm   2.0mph /  3.2km/h 21% 0.00in /  0mm 12.0 W/m2
17:07 64.9 °F /  18.3 °C 26.2 °F /  -3.2 °C 30.41in /  1029.7hPa Calm     23% 0.00in /  0mm 11.0 W/m2
17:13 64.6 °F /  18.1 °C 24.8 °F /  -4 °C 30.41in /  1029.7hPa NE 0.9mph /  1.4km/h 2.0mph /  3.2km/h 22% 0.00in /  0mm 7.0 W/m2
17:19 63.9 °F /  17.7 °C 25.3 °F /  -3.7 °C 30.42in /  1030hPa Calm   2.0mph /  3.2km/h 23% 0.00in /  0mm 0.0 W/m2
17:25 63.1 °F /  17.3 °C 24.8 °F /  -4 °C 30.42in /  1030hPa Calm   1.0mph /  1.6km/h 23% 0.00in /  0mm 0.0 W/m2
17:31 62.8 °F /  17.1 °C 25.5 °F /  -3.6 °C 30.42in /  1030hPa Calm     24% 0.00in /  0mm 0.0 W/m2
17:40 61.9 °F /  16.6 °C 25.7 °F /  -3.5 °C 30.43in /  1030.4hPa Calm     25% 0.00in /  0mm 0.0 W/m2
17:46 61.0 °F /  16.1 °C 25.0 °F /  -3.9 °C 30.43in /  1030.4hPa Calm     25% 0.00in /  0mm 0.0 W/m2
17:52 60.3 °F /  15.7 °C 25.2 °F /  -3.8 °C 30.43in /  1030.4hPa Calm     26% 0.00in /  0mm 0.0 W/m2
17:58 59.5 °F /  15.3 °C 25.5 °F /  -3.6 °C 30.44in /  1030.7hPa Calm     27% 0.00in /  0mm 0.0 W/m2
18:04 58.6 °F /  14.8 °C 25.7 °F /  -3.5 °C 30.44in /  1030.7hPa Calm     28% 0.00in /  0mm 0.0 W/m2
18:10 57.9 °F /  14.4 °C 25.0 °F /  -3.9 °C 30.44in /  1030.7hPa Calm     28% 0.00in /  0mm 0.0 W/m2
18:16 57.4 °F /  14.1 °C 24.6 °F /  -4.1 °C 30.45in /  1031hPa Calm     28% 0.00in /  0mm 0.0 W/m2
18:25 56.7 °F /  13.7 °C 24.8 °F /  -4 °C 30.45in /  1031hPa Calm     29% 0.00in /  0mm 0.0 W/m2
18:33 55.8 °F /  13.2 °C 24.8 °F /  -4 °C 30.46in /  1031.4hPa Calm   1.0mph /  1.6km/h 30% 0.00in /  0mm 0.0 W/m2
18:39 55.2 °F /  12.9 °C 24.3 °F /  -4.3 °C 30.46in /  1031.4hPa Calm   1.0mph /  1.6km/h 30% 0.00in /  0mm 0.0 W/m2
18:45 54.7 °F /  12.6 °C 24.6 °F /  -4.1 °C 30.46in /  1031.4hPa Calm   1.0mph /  1.6km/h 31% 0.00in /  0mm 0.0 W/m2
18:51 54.3 °F /  12.4 °C 24.3 °F /  -4.3 °C 30.46in /  1031.4hPa Calm     31% 0.00in /  0mm 0.0 W/m2
18:57 54.1 °F /  12.3 °C 24.1 °F /  -4.4 °C 30.47in /  1031.7hPa Calm     31% 0.00in /  0mm 0.0 W/m2
19:03 54.0 °F /  12.2 °C 24.8 °F /  -4 °C 30.47in /  1031.7hPa Calm   1.0mph /  1.6km/h 32% 0.00in /  0mm 0.0 W/m2
19:09 53.8 °F /  12.1 °C 24.6 °F /  -4.1 °C 30.47in /  1031.7hPa Calm   3.0mph /  4.8km/h 32% 0.00in /  0mm 0.0 W/m2
19:16 53.6 °F /  12 °C 24.4 °F /  -4.2 °C 30.48in /  1032.1hPa East 0.9mph /  1.4km/h 2.0mph /  3.2km/h 32% 0.00in /  0mm 0.0 W/m2
19:22 53.4 °F /  11.9 °C 24.3 °F /  -4.3 °C 30.48in /  1032.1hPa ENE 0.9mph /  1.4km/h 4.0mph /  6.4km/h 32% 0.00in /  0mm 0.0 W/m2
19:28 53.2 °F /  11.8 °C 24.8 °F /  -4 °C 30.48in /  1032.1hPa Calm   1.0mph /  1.6km/h 33% 0.00in /  0mm 0.0 W/m2
19:34 52.9 °F /  11.6 °C 24.6 °F /  -4.1 °C 30.48in /  1032.1hPa Calm     33% 0.00in /  0mm 0.0 W/m2
19:40 52.5 °F /  11.4 °C 24.3 °F /  -4.3 °C 30.49in /  1032.4hPa Calm   1.0mph /  1.6km/h 33% 0.00in /  0mm 0.0 W/m2
19:46 52.3 °F /  11.3 °C 24.1 °F /  -4.4 °C 30.49in /  1032.4hPa Calm     33% 0.00in /  0mm 0.0 W/m2
19:52 52.2 °F /  11.2 °C 24.6 °F /  -4.1 °C 30.49in /  1032.4hPa Calm     34% 0.00in /  0mm 0.0 W/m2
19:59 52.0 °F /  11.1 °C 24.4 °F /  -4.2 °C 30.49in /  1032.4hPa Calm     34% 0.00in /  0mm 0.0 W/m2
20:05 51.8 °F /  11 °C 24.3 °F /  -4.3 °C 30.49in /  1032.4hPa Calm     34% 0.00in /  0mm 0.0 W/m2
20:11 51.6 °F /  10.9 °C 24.1 °F /  -4.4 °C 30.49in /  1032.4hPa Calm   1.0mph /  1.6km/h 34% 0.00in /  0mm 0.0 W/m2
20:17 51.4 °F /  10.8 °C 24.6 °F /  -4.1 °C 30.50in /  1032.7hPa Calm     35% 0.00in /  0mm 0.0 W/m2
20:23 51.3 °F /  10.7 °C 24.6 °F /  -4.1 °C 30.50in /  1032.7hPa Calm     35% 0.00in /  0mm 0.0 W/m2
20:29 51.3 °F /  10.7 °C 25.2 °F /  -3.8 °C 30.50in /  1032.7hPa Calm     36% 0.00in /  0mm 0.0 W/m2
20:35 51.1 °F /  10.6 °C 25.0 °F /  -3.9 °C 30.50in /  1032.7hPa Calm   1.0mph /  1.6km/h 36% 0.00in /  0mm 0.0 W/m2
20:41 50.7 °F /  10.4 °C 24.8 °F /  -4 °C 30.50in /  1032.7hPa Calm   1.0mph /  1.6km/h 36% 0.00in /  0mm 0.0 W/m2
20:47 50.4 °F /  10.2 °C 25.0 °F /  -3.9 °C 30.50in /  1032.7hPa ENE 0.9mph /  1.4km/h 3.0mph /  4.8km/h 37% 0.00in /  0mm 0.0 W/m2
20:53 50.2 °F /  10.1 °C 25.0 °F /  -3.9 °C 30.51in /  1033.1hPa Calm   1.0mph /  1.6km/h 37% 0.00in /  0mm 0.0 W/m2
20:59 50.2 °F /  10.1 °C 25.0 °F /  -3.9 °C 30.51in /  1033.1hPa Calm   2.0mph /  3.2km/h 37% 0.00in /  0mm 0.0 W/m2
21:06 49.8 °F /  9.9 °C 24.6 °F /  -4.1 °C 30.51in /  1033.1hPa Calm   1.0mph /  1.6km/h 37% 0.00in /  0mm 0.0 W/m2
21:12 49.6 °F /  9.8 °C 25.0 °F /  -3.9 °C 30.51in /  1033.1hPa Calm     38% 0.00in /  0mm 0.0 W/m2
21:18 49.5 °F /  9.7 °C 25.0 °F /  -3.9 °C 30.51in /  1033.1hPa ENE 0.9mph /  1.4km/h 1.0mph /  1.6km/h 38% 0.00in /  0mm 0.0 W/m2
21:24 49.3 °F /  9.6 °C 25.3 °F /  -3.7 °C 30.51in /  1033.1hPa Calm     39% 0.00in /  0mm 0.0 W/m2
21:30 49.1 °F /  9.5 °C 25.2 °F /  -3.8 °C 30.51in /  1033.1hPa Calm     39% 0.00in /  0mm 0.0 W/m2
21:36 48.9 °F /  9.4 °C 25.7 °F /  -3.5 °C 30.51in /  1033.1hPa Calm     40% 0.00in /  0mm 0.0 W/m2
21:42 48.7 °F /  9.3 °C 25.5 °F /  -3.6 °C 30.51in /  1033.1hPa Calm   1.0mph /  1.6km/h 40% 0.00in /  0mm 0.0 W/m2
21:48 48.6 °F /  9.2 °C 25.9 °F /  -3.4 °C 30.51in /  1033.1hPa Calm   1.0mph /  1.6km/h 41% 0.00in /  0mm 0.0 W/m2
21:54 48.6 °F /  9.2 °C 25.9 °F /  -3.4 °C 30.51in /  1033.1hPa Calm     41% 0.00in /  0mm 0.0 W/m2
22:00 48.4 °F /  9.1 °C 25.7 °F /  -3.5 °C 30.51in /  1033.1hPa Calm     41% 0.00in /  0mm 0.0 W/m2
22:06 48.2 °F /  9 °C 26.2 °F /  -3.2 °C 30.51in /  1033.1hPa Calm     42% 0.00in /  0mm 0.0 W/m2
22:12 48.0 °F /  8.9 °C 26.1 °F /  -3.3 °C 30.51in /  1033.1hPa Calm     42% 0.00in /  0mm 0.0 W/m2
22:18 47.8 °F /  8.8 °C 26.4 °F /  -3.1 °C 30.51in /  1033.1hPa Calm   1.0mph /  1.6km/h 43% 0.00in /  0mm 0.0 W/m2
22:24 47.8 °F /  8.8 °C 26.4 °F /  -3.1 °C 30.51in /  1033.1hPa Calm     43% 0.00in /  0mm 0.0 W/m2
22:30 47.7 °F /  8.7 °C 26.2 °F /  -3.2 °C 30.51in /  1033.1hPa Calm     43% 0.00in /  0mm 0.0 W/m2
22:36 47.7 °F /  8.7 °C 26.8 °F /  -2.9 °C 30.51in /  1033.1hPa Calm     44% 0.00in /  0mm 0.0 W/m2
22:42 47.5 °F /  8.6 °C 26.6 °F /  -3 °C 30.51in /  1033.1hPa Calm     44% 0.00in /  0mm 0.0 W/m2
22:48 47.5 °F /  8.6 °C 26.6 °F /  -3 °C 30.50in /  1032.7hPa Calm     44% 0.00in /  0mm 0.0 W/m2
22:54 47.1 °F /  8.4 °C 26.8 °F /  -2.9 °C 30.50in /  1032.7hPa Calm     45% 0.00in /  0mm 0.0 W/m2
23:00 47.1 °F /  8.4 °C 26.8 °F /  -2.9 °C 30.50in /  1032.7hPa Calm     45% 0.00in /  0mm 0.0 W/m2
23:06 46.9 °F /  8.3 °C 27.3 °F /  -2.6 °C 30.50in /  1032.7hPa Calm     46% 0.00in /  0mm 0.0 W/m2
23:12 46.8 °F /  8.2 °C 27.7 °F /  -2.4 °C 30.50in /  1032.7hPa Calm   1.0mph /  1.6km/h 47% 0.00in /  0mm 0.0 W/m2
23:18 46.6 °F /  8.1 °C 27.5 °F /  -2.5 °C 30.50in /  1032.7hPa Calm     47% 0.00in /  0mm 0.0 W/m2
23:24 46.4 °F /  8 °C 27.3 °F /  -2.6 °C 30.50in /  1032.7hPa Calm   1.0mph /  1.6km/h 47% 0.00in /  0mm 0.0 W/m2
23:30 46.2 °F /  7.9 °C 27.7 °F /  -2.4 °C 30.50in /  1032.7hPa Calm     48% 0.00in /  0mm 0.0 W/m2
23:36 46.0 °F /  7.8 °C 27.5 °F /  -2.5 °C 30.50in /  1032.7hPa Calm     48% 0.00in /  0mm 0.0 W/m2
23:42 45.9 °F /  7.7 °C 27.9 °F /  -2.3 °C 30.50in /  1032.7hPa Calm   1.0mph /  1.6km/h 49% 0.00in /  0mm 0.0 W/m2
23:48 45.9 °F /  7.7 °C 27.9 °F /  -2.3 °C 30.50in /  1032.7hPa Calm     49% 0.00in /  0mm 0.0 W/m2
23:54 45.9 °F /  7.7 °C 28.2 °F /  -2.1 °C 30.50in /  1032.7hPa Calm     50% 0.00in /  0mm 0.0 W/m2
Olympia, Windhoek, Namibia
Compliments of Weather Underground - 3 mb